Eagle Tampa — S6NK6 — position and weather

sailwx.info

Track history (hours):
 
Tides and Currents Weather Stations Pressure Air Temp Water Temp Dewpoint Dewpoint Depression Visibility Wind Speed Wind Dir Waves Ship Positions

Eagle Tampa

Last reported at 2017-Nov-14 17:03 UTC. Time now 2017-Nov-17 17:43 UTC.
Position N 29°37' W 093°49'.

Length 247 m; draft 8.8 m.

Type: Tanker. MMSI: 563936000.

Date/timePositionNaut miles runAvg speedWind from/ knotsBaromVisibWave heightAir tempDewpointWater temp
2017-Nov-14 17:03N 29°37' W 093°49'15 9.1
2017-Nov-14 15:25N 29°50' W 093°57'3 6.6
2017-Nov-14 14:59N 29°53' W 093°56'4 8.4
2017-Nov-14 14:30N 29°56' W 093°53'3 5.3
2017-Nov-14 13:54N 29°59' W 093°52'4 5.3
2017-Nov-14 13:04N 29°60' W 093°57'6 0.1
2017-Nov-12 16:39N 29°56' W 093°52'1 3.5
2017-Nov-12 16:29N 29°56' W 093°53'35 5.5
2017-Nov-12 10:06N 29°23' W 093°37'  
2017-Nov-06 01:37N 29°49' W 093°57'0 0.0
2017-Nov-06 01:06N 29°49' W 093°57'0 0.0
2017-Nov-05 13:44N 29°49' W 093°57'0 0.0
2017-Nov-05 13:23N 29°49' W 093°57'0 0.0
2017-Nov-05 13:00N 29°49' W 093°57'0 0.0
2017-Nov-05 12:27N 29°49' W 093°57'0 0.0
2017-Nov-05 11:56N 29°49' W 093°57'0 0.0
2017-Nov-05 11:09N 29°49' W 093°57'0 0.0
2017-Nov-05 10:10N 29°49' W 093°57'0 0.0
2017-Nov-05 09:52N 29°49' W 093°57'0 0.0
2017-Nov-05 08:18N 29°49' W 093°57'0 0.0
2017-Nov-05 07:58N 29°49' W 093°57'  
Track history (hours):
 
Tides and Currents Weather Stations Pressure Air Temp Water Temp Dewpoint Dewpoint Depression Visibility Wind Speed Wind Dir Waves Ship Positions

Eagle Tampa

Last reported at 2017-Nov-14 17:03 UTC. Time now 2017-Nov-17 17:43 UTC.
Position N 29°37' W 093°49'.

Length 247 m; draft 8.8 m.

Type: Tanker. MMSI: 563936000.

Date/timePositionNaut miles runAvg speedWind from/ knotsBaromVisibWave heightAir tempDewpointWater temp
2017-Nov-14 17:03N 29°37' W 093°49'15 9.1
2017-Nov-14 15:25N 29°50' W 093°57'3 6.6
2017-Nov-14 14:59N 29°53' W 093°56'4 8.4
2017-Nov-14 14:30N 29°56' W 093°53'3 5.3
2017-Nov-14 13:54N 29°59' W 093°52'4 5.3
2017-Nov-14 13:04N 29°60' W 093°57'6 0.1
2017-Nov-12 16:39N 29°56' W 093°52'1 3.5
2017-Nov-12 16:29N 29°56' W 093°53'35 5.5
2017-Nov-12 10:06N 29°23' W 093°37'  
2017-Nov-06 01:37N 29°49' W 093°57'0 0.0
2017-Nov-06 01:06N 29°49' W 093°57'0 0.0
2017-Nov-05 13:44N 29°49' W 093°57'0 0.0
2017-Nov-05 13:23N 29°49' W 093°57'0 0.0
2017-Nov-05 13:00N 29°49' W 093°57'0 0.0
2017-Nov-05 12:27N 29°49' W 093°57'0 0.0
2017-Nov-05 11:56N 29°49' W 093°57'0 0.0
2017-Nov-05 11:09N 29°49' W 093°57'0 0.0
2017-Nov-05 10:10N 29°49' W 093°57'0 0.0
2017-Nov-05 09:52N 29°49' W 093°57'0 0.0
2017-Nov-05 08:18N 29°49' W 093°57'0 0.0
2017-Nov-05 07:58N 29°49' W 093°57'  

Dump ship's entire track history